sensor_id;sensor_type;location;lat;lon;timestamp;P1;durP1;ratioP1;P2;durP2;ratioP2
20870;SDS011;10595;51.218;3.452;2022-09-14T00:00:04;16.03;;;6.90;;
20870;SDS011;10595;51.218;3.452;2022-09-14T00:02:31;11.20;;;6.43;;
20870;SDS011;10595;51.218;3.452;2022-09-14T00:04:57;13.17;;;6.63;;
20870;SDS011;10595;51.218;3.452;2022-09-14T00:07:23;13.40;;;6.33;;
20870;SDS011;10595;51.218;3.452;2022-09-14T00:09:50;8.60;;;6.00;;
20870;SDS011;10595;51.218;3.452;2022-09-14T00:12:16;17.67;;;5.70;;
20870;SDS011;10595;51.218;3.452;2022-09-14T00:14:45;8.97;;;5.07;;
20870;SDS011;10595;51.218;3.452;2022-09-14T00:17:11;10.73;;;5.77;;
20870;SDS011;10595;51.218;3.452;2022-09-14T00:19:37;9.27;;;4.60;;
20870;SDS011;10595;51.218;3.452;2022-09-14T00:22:03;10.13;;;4.10;;
20870;SDS011;10595;51.218;3.452;2022-09-14T00:24:30;9.47;;;4.17;;
20870;SDS011;10595;51.218;3.452;2022-09-14T00:26:58;9.10;;;3.43;;
20870;SDS011;10595;51.218;3.452;2022-09-14T00:29:26;9.10;;;3.23;;
20870;SDS011;10595;51.218;3.452;2022-09-14T00:31:52;7.10;;;3.00;;
20870;SDS011;10595;51.218;3.452;2022-09-14T00:34:18;7.33;;;2.77;;
20870;SDS011;10595;51.218;3.452;2022-09-14T00:36:46;6.37;;;2.70;;
20870;SDS011;10595;51.218;3.452;2022-09-14T00:39:13;7.33;;;2.77;;
20870;SDS011;10595;51.218;3.452;2022-09-14T00:41:40;9.87;;;2.57;;
20870;SDS011;10595;51.218;3.452;2022-09-14T00:49:06;6.13;;;2.73;;
20870;SDS011;10595;51.218;3.452;2022-09-14T00:51:32;5.70;;;2.03;;
20870;SDS011;10595;51.218;3.452;2022-09-14T00:54:00;6.33;;;2.40;;
20870;SDS011;10595;51.218;3.452;2022-09-14T00:56:27;6.80;;;2.47;;
20870;SDS011;10595;51.218;3.452;2022-09-14T00:58:53;8.60;;;2.47;;
20870;SDS011;10595;51.218;3.452;2022-09-14T01:01:19;8.07;;;2.50;;
20870;SDS011;10595;51.218;3.452;2022-09-14T01:03:45;7.43;;;2.30;;
20870;SDS011;10595;51.218;3.452;2022-09-14T01:06:21;5.40;;;2.77;;
20870;SDS011;10595;51.218;3.452;2022-09-14T01:09:05;8.53;;;2.40;;
20870;SDS011;10595;51.218;3.452;2022-09-14T01:14:17;7.63;;;2.30;;
20870;SDS011;10595;51.218;3.452;2022-09-14T01:17:00;7.20;;;2.40;;
20870;SDS011;10595;51.218;3.452;2022-09-14T01:22:20;8.53;;;2.60;;
20870;SDS011;10595;51.218;3.452;2022-09-14T01:24:50;6.70;;;2.73;;
20870;SDS011;10595;51.218;3.452;2022-09-14T01:27:34;9.13;;;2.83;;
20870;SDS011;10595;51.218;3.452;2022-09-14T01:35:02;9.37;;;2.53;;
20870;SDS011;10595;51.218;3.452;2022-09-14T01:37:32;7.40;;;3.33;;
20870;SDS011;10595;51.218;3.452;2022-09-14T01:40:10;14.27;;;3.63;;
20870;SDS011;10595;51.218;3.452;2022-09-14T01:42:39;9.87;;;3.50;;
20870;SDS011;10595;51.218;3.452;2022-09-14T01:45:07;8.80;;;4.23;;
20870;SDS011;10595;51.218;3.452;2022-09-14T01:47:41;13.53;;;4.23;;
20870;SDS011;10595;51.218;3.452;2022-09-14T01:50:10;8.67;;;3.87;;
20870;SDS011;10595;51.218;3.452;2022-09-14T01:52:44;11.27;;;4.33;;
20870;SDS011;10595;51.218;3.452;2022-09-14T01:55:15;9.47;;;4.67;;
20870;SDS011;10595;51.218;3.452;2022-09-14T01:57:59;11.67;;;5.13;;
20870;SDS011;10595;51.218;3.452;2022-09-14T02:00:26;11.30;;;6.07;;
20870;SDS011;10595;51.218;3.452;2022-09-14T02:02:54;12.57;;;5.23;;
20870;SDS011;10595;51.218;3.452;2022-09-14T02:05:39;14.17;;;5.73;;
20870;SDS011;10595;51.218;3.452;2022-09-14T02:08:07;10.70;;;4.90;;
20870;SDS011;10595;51.218;3.452;2022-09-14T02:10:33;13.57;;;5.70;;
20870;SDS011;10595;51.218;3.452;2022-09-14T02:12:59;12.20;;;5.37;;
20870;SDS011;10595;51.218;3.452;2022-09-14T02:15:25;14.40;;;5.70;;
20870;SDS011;10595;51.218;3.452;2022-09-14T02:17:52;13.17;;;5.93;;
20870;SDS011;10595;51.218;3.452;2022-09-14T02:20:23;11.10;;;5.73;;
20870;SDS011;10595;51.218;3.452;2022-09-14T02:22:51;12.27;;;5.87;;
20870;SDS011;10595;51.218;3.452;2022-09-14T02:25:18;13.87;;;5.77;;
20870;SDS011;10595;51.218;3.452;2022-09-14T02:27:44;13.03;;;6.13;;
20870;SDS011;10595;51.218;3.452;2022-09-14T02:30:15;13.13;;;6.10;;
20870;SDS011;10595;51.218;3.452;2022-09-14T02:35:22;14.53;;;8.00;;
20870;SDS011;10595;51.218;3.452;2022-09-14T02:40:38;16.73;;;8.60;;
20870;SDS011;10595;51.218;3.452;2022-09-14T02:43:11;12.73;;;8.57;;
20870;SDS011;10595;51.218;3.452;2022-09-14T02:48:12;19.70;;;9.90;;
20870;SDS011;10595;51.218;3.452;2022-09-14T02:53:41;14.30;;;7.00;;
20870;SDS011;10595;51.218;3.452;2022-09-14T02:56:09;10.07;;;4.33;;
20870;SDS011;10595;51.218;3.452;2022-09-14T02:58:37;10.03;;;3.70;;
20870;SDS011;10595;51.218;3.452;2022-09-14T03:01:04;9.37;;;3.37;;
20870;SDS011;10595;51.218;3.452;2022-09-14T03:03:30;11.13;;;4.07;;
20870;SDS011;10595;51.218;3.452;2022-09-14T03:05:56;6.73;;;3.53;;
20870;SDS011;10595;51.218;3.452;2022-09-14T03:08:23;11.47;;;3.77;;
20870;SDS011;10595;51.218;3.452;2022-09-14T03:10:49;7.23;;;3.57;;
20870;SDS011;10595;51.218;3.452;2022-09-14T03:13:15;8.67;;;3.30;;
20870;SDS011;10595;51.218;3.452;2022-09-14T03:15:41;9.90;;;3.70;;
20870;SDS011;10595;51.218;3.452;2022-09-14T03:18:07;6.77;;;3.80;;
20870;SDS011;10595;51.218;3.452;2022-09-14T03:20:34;7.90;;;3.87;;
20870;SDS011;10595;51.218;3.452;2022-09-14T03:23:00;8.33;;;4.10;;
20870;SDS011;10595;51.218;3.452;2022-09-14T03:25:27;10.37;;;4.17;;
20870;SDS011;10595;51.218;3.452;2022-09-14T03:27:54;11.67;;;3.90;;
20870;SDS011;10595;51.218;3.452;2022-09-14T03:30:21;12.83;;;4.00;;
20870;SDS011;10595;51.218;3.452;2022-09-14T03:32:47;10.83;;;4.20;;
20870;SDS011;10595;51.218;3.452;2022-09-14T03:35:13;9.17;;;3.87;;
20870;SDS011;10595;51.218;3.452;2022-09-14T03:37:40;9.77;;;4.20;;
20870;SDS011;10595;51.218;3.452;2022-09-14T03:40:07;9.30;;;3.97;;
20870;SDS011;10595;51.218;3.452;2022-09-14T03:42:33;11.07;;;5.47;;
20870;SDS011;10595;51.218;3.452;2022-09-14T03:44:59;10.57;;;5.03;;
20870;SDS011;10595;51.218;3.452;2022-09-14T03:47:26;12.40;;;5.43;;
20870;SDS011;10595;51.218;3.452;2022-09-14T03:49:52;14.17;;;5.27;;
20870;SDS011;10595;51.218;3.452;2022-09-14T03:52:18;14.30;;;6.20;;
20870;SDS011;10595;51.218;3.452;2022-09-14T03:54:44;10.17;;;6.87;;
20870;SDS011;10595;51.218;3.452;2022-09-14T03:57:10;16.17;;;7.70;;
20870;SDS011;10595;51.218;3.452;2022-09-14T03:59:36;13.90;;;7.60;;
20870;SDS011;10595;51.218;3.452;2022-09-14T04:02:02;15.60;;;7.63;;
20870;SDS011;10595;51.218;3.452;2022-09-14T04:04:28;16.50;;;7.90;;
20870;SDS011;10595;51.218;3.452;2022-09-14T04:06:54;13.77;;;7.63;;
20870;SDS011;10595;51.218;3.452;2022-09-14T04:09:20;13.30;;;8.43;;
20870;SDS011;10595;51.218;3.452;2022-09-14T04:11:46;17.33;;;9.50;;
20870;SDS011;10595;51.218;3.452;2022-09-14T04:14:12;15.00;;;9.53;;
20870;SDS011;10595;51.218;3.452;2022-09-14T04:16:39;19.13;;;10.43;;
20870;SDS011;10595;51.218;3.452;2022-09-14T04:19:05;19.50;;;11.47;;
20870;SDS011;10595;51.218;3.452;2022-09-14T04:21:31;22.50;;;11.43;;
20870;SDS011;10595;51.218;3.452;2022-09-14T04:23:58;21.57;;;12.20;;
20870;SDS011;10595;51.218;3.452;2022-09-14T04:26:26;18.07;;;11.53;;
20870;SDS011;10595;51.218;3.452;2022-09-14T04:28:52;23.60;;;12.93;;
20870;SDS011;10595;51.218;3.452;2022-09-14T04:31:21;22.50;;;12.50;;
20870;SDS011;10595;51.218;3.452;2022-09-14T04:33:47;24.50;;;14.27;;
20870;SDS011;10595;51.218;3.452;2022-09-14T04:36:19;22.27;;;13.30;;
20870;SDS011;10595;51.218;3.452;2022-09-14T04:38:45;21.30;;;13.70;;
20870;SDS011;10595;51.218;3.452;2022-09-14T04:41:12;21.77;;;13.60;;
20870;SDS011;10595;51.218;3.452;2022-09-14T04:43:39;19.30;;;13.10;;
20870;SDS011;10595;51.218;3.452;2022-09-14T04:46:15;25.97;;;14.80;;
20870;SDS011;10595;51.218;3.452;2022-09-14T04:48:41;26.37;;;14.73;;
20870;SDS011;10595;51.218;3.452;2022-09-14T04:51:08;23.57;;;14.50;;
20870;SDS011;10595;51.218;3.452;2022-09-14T04:53:36;30.63;;;15.83;;
20870;SDS011;10595;51.218;3.452;2022-09-14T04:56:03;22.83;;;15.27;;
20870;SDS011;10595;51.218;3.452;2022-09-14T04:58:29;30.03;;;15.60;;
20870;SDS011;10595;51.218;3.452;2022-09-14T05:01:10;24.37;;;14.23;;
20870;SDS011;10595;51.218;3.452;2022-09-14T05:03:36;26.40;;;16.73;;
20870;SDS011;10595;51.218;3.452;2022-09-14T05:06:03;24.97;;;15.03;;
20870;SDS011;10595;51.218;3.452;2022-09-14T05:08:30;24.13;;;14.07;;
20870;SDS011;10595;51.218;3.452;2022-09-14T05:10:57;23.23;;;14.30;;
20870;SDS011;10595;51.218;3.452;2022-09-14T05:13:23;25.83;;;14.37;;
20870;SDS011;10595;51.218;3.452;2022-09-14T05:15:49;25.37;;;14.03;;
20870;SDS011;10595;51.218;3.452;2022-09-14T05:18:17;22.67;;;13.60;;
20870;SDS011;10595;51.218;3.452;2022-09-14T05:20:43;20.17;;;12.90;;
20870;SDS011;10595;51.218;3.452;2022-09-14T05:23:09;21.23;;;14.17;;
20870;SDS011;10595;51.218;3.452;2022-09-14T05:25:35;23.80;;;15.20;;
20870;SDS011;10595;51.218;3.452;2022-09-14T05:28:01;23.37;;;15.93;;
20870;SDS011;10595;51.218;3.452;2022-09-14T05:30:27;20.73;;;14.40;;
20870;SDS011;10595;51.218;3.452;2022-09-14T05:32:53;26.10;;;15.60;;
20870;SDS011;10595;51.218;3.452;2022-09-14T05:35:19;26.23;;;15.67;;
20870;SDS011;10595;51.218;3.452;2022-09-14T05:37:45;28.63;;;16.27;;
20870;SDS011;10595;51.218;3.452;2022-09-14T05:40:14;27.13;;;14.70;;
20870;SDS011;10595;51.218;3.452;2022-09-14T05:42:40;24.27;;;15.10;;
20870;SDS011;10595;51.218;3.452;2022-09-14T05:45:06;25.13;;;13.73;;
20870;SDS011;10595;51.218;3.452;2022-09-14T05:47:32;23.83;;;13.70;;
20870;SDS011;10595;51.218;3.452;2022-09-14T05:49:58;22.80;;;11.70;;
20870;SDS011;10595;51.218;3.452;2022-09-14T05:52:24;20.70;;;11.20;;
20870;SDS011;10595;51.218;3.452;2022-09-14T05:54:53;15.90;;;9.87;;
20870;SDS011;10595;51.218;3.452;2022-09-14T05:57:19;15.23;;;9.77;;
20870;SDS011;10595;51.218;3.452;2022-09-14T05:59:45;17.47;;;9.30;;
20870;SDS011;10595;51.218;3.452;2022-09-14T06:02:11;16.53;;;9.60;;
20870;SDS011;10595;51.218;3.452;2022-09-14T06:04:37;12.27;;;8.33;;
20870;SDS011;10595;51.218;3.452;2022-09-14T06:07:03;13.30;;;8.10;;
20870;SDS011;10595;51.218;3.452;2022-09-14T06:09:29;14.57;;;8.77;;
20870;SDS011;10595;51.218;3.452;2022-09-14T06:11:55;15.83;;;8.63;;
20870;SDS011;10595;51.218;3.452;2022-09-14T06:14:20;14.60;;;8.83;;
20870;SDS011;10595;51.218;3.452;2022-09-14T06:16:46;14.37;;;9.57;;
20870;SDS011;10595;51.218;3.452;2022-09-14T06:19:12;15.57;;;8.93;;
20870;SDS011;10595;51.218;3.452;2022-09-14T06:21:39;15.40;;;8.37;;
20870;SDS011;10595;51.218;3.452;2022-09-14T06:24:08;14.50;;;9.13;;
20870;SDS011;10595;51.218;3.452;2022-09-14T06:26:34;14.63;;;9.40;;
20870;SDS011;10595;51.218;3.452;2022-09-14T06:29:00;16.73;;;9.37;;
20870;SDS011;10595;51.218;3.452;2022-09-14T06:31:26;14.90;;;8.93;;
20870;SDS011;10595;51.218;3.452;2022-09-14T06:33:52;16.47;;;10.20;;
20870;SDS011;10595;51.218;3.452;2022-09-14T06:36:19;18.83;;;9.30;;
20870;SDS011;10595;51.218;3.452;2022-09-14T06:38:46;15.70;;;9.83;;
20870;SDS011;10595;51.218;3.452;2022-09-14T06:41:16;16.00;;;9.27;;
20870;SDS011;10595;51.218;3.452;2022-09-14T06:43:42;14.57;;;9.03;;
20870;SDS011;10595;51.218;3.452;2022-09-14T06:46:24;14.10;;;8.83;;
20870;SDS011;10595;51.218;3.452;2022-09-14T06:48:51;14.80;;;10.20;;
20870;SDS011;10595;51.218;3.452;2022-09-14T06:51:28;12.63;;;9.67;;
20870;SDS011;10595;51.218;3.452;2022-09-14T06:53:55;16.87;;;10.33;;
20870;SDS011;10595;51.218;3.452;2022-09-14T06:56:21;16.37;;;10.10;;
20870;SDS011;10595;51.218;3.452;2022-09-14T06:58:47;19.60;;;10.43;;
20870;SDS011;10595;51.218;3.452;2022-09-14T07:01:14;13.17;;;9.37;;
20870;SDS011;10595;51.218;3.452;2022-09-14T07:03:41;13.67;;;9.37;;
20870;SDS011;10595;51.218;3.452;2022-09-14T07:06:11;15.73;;;9.87;;
20870;SDS011;10595;51.218;3.452;2022-09-14T07:08:38;12.27;;;10.23;;
20870;SDS011;10595;51.218;3.452;2022-09-14T07:11:05;12.30;;;9.53;;
20870;SDS011;10595;51.218;3.452;2022-09-14T07:13:31;12.67;;;9.00;;
20870;SDS011;10595;51.218;3.452;2022-09-14T07:15:57;15.67;;;9.53;;
20870;SDS011;10595;51.218;3.452;2022-09-14T07:18:23;15.43;;;8.47;;
20870;SDS011;10595;51.218;3.452;2022-09-14T07:21:16;11.30;;;6.30;;
20870;SDS011;10595;51.218;3.452;2022-09-14T07:23:43;8.63;;;4.17;;
20870;SDS011;10595;51.218;3.452;2022-09-14T07:26:25;7.43;;;3.70;;
20870;SDS011;10595;51.218;3.452;2022-09-14T07:28:58;8.37;;;3.60;;
20870;SDS011;10595;51.218;3.452;2022-09-14T07:31:32;7.20;;;3.13;;
20870;SDS011;10595;51.218;3.452;2022-09-14T07:34:00;7.43;;;3.10;;
20870;SDS011;10595;51.218;3.452;2022-09-14T07:36:27;4.67;;;2.33;;
20870;SDS011;10595;51.218;3.452;2022-09-14T07:38:54;7.67;;;2.27;;
20870;SDS011;10595;51.218;3.452;2022-09-14T07:41:20;5.53;;;2.10;;
20870;SDS011;10595;51.218;3.452;2022-09-14T07:43:47;2.97;;;1.60;;
20870;SDS011;10595;51.218;3.452;2022-09-14T07:46:14;4.63;;;2.10;;
20870;SDS011;10595;51.218;3.452;2022-09-14T07:48:39;5.03;;;1.60;;
20870;SDS011;10595;51.218;3.452;2022-09-14T07:51:06;4.20;;;1.70;;
20870;SDS011;10595;51.218;3.452;2022-09-14T07:53:34;4.67;;;1.60;;
20870;SDS011;10595;51.218;3.452;2022-09-14T07:56:03;4.17;;;2.17;;
20870;SDS011;10595;51.218;3.452;2022-09-14T07:58:29;5.63;;;2.23;;
20870;SDS011;10595;51.218;3.452;2022-09-14T08:00:59;3.93;;;1.90;;
20870;SDS011;10595;51.218;3.452;2022-09-14T08:03:25;4.10;;;1.83;;
20870;SDS011;10595;51.218;3.452;2022-09-14T08:05:59;4.13;;;2.10;;
20870;SDS011;10595;51.218;3.452;2022-09-14T08:08:29;4.30;;;1.90;;
20870;SDS011;10595;51.218;3.452;2022-09-14T08:11:01;6.57;;;2.30;;
20870;SDS011;10595;51.218;3.452;2022-09-14T08:13:27;8.07;;;2.50;;
20870;SDS011;10595;51.218;3.452;2022-09-14T08:15:53;8.30;;;2.20;;
20870;SDS011;10595;51.218;3.452;2022-09-14T08:18:19;5.90;;;2.33;;
20870;SDS011;10595;51.218;3.452;2022-09-14T08:20:45;6.60;;;2.20;;
20870;SDS011;10595;51.218;3.452;2022-09-14T08:23:11;8.60;;;2.57;;
20870;SDS011;10595;51.218;3.452;2022-09-14T08:25:37;5.87;;;2.10;;
20870;SDS011;10595;51.218;3.452;2022-09-14T08:28:03;4.90;;;2.60;;
20870;SDS011;10595;51.218;3.452;2022-09-14T08:30:29;3.93;;;2.37;;
20870;SDS011;10595;51.218;3.452;2022-09-14T08:32:55;4.30;;;1.83;;
20870;SDS011;10595;51.218;3.452;2022-09-14T08:35:21;3.70;;;2.10;;
20870;SDS011;10595;51.218;3.452;2022-09-14T08:37:47;4.67;;;1.67;;
20870;SDS011;10595;51.218;3.452;2022-09-14T08:40:13;4.73;;;1.67;;
20870;SDS011;10595;51.218;3.452;2022-09-14T08:42:41;3.00;;;1.60;;
20870;SDS011;10595;51.218;3.452;2022-09-14T08:45:09;3.57;;;1.60;;
20870;SDS011;10595;51.218;3.452;2022-09-14T08:47:36;3.53;;;1.60;;
20870;SDS011;10595;51.218;3.452;2022-09-14T08:54:59;4.37;;;2.17;;
20870;SDS011;10595;51.218;3.452;2022-09-14T09:00:11;3.37;;;1.60;;
20870;SDS011;10595;51.218;3.452;2022-09-14T09:10:28;2.97;;;1.90;;
20870;SDS011;10595;51.218;3.452;2022-09-14T09:12:56;2.60;;;2.10;;
20870;SDS011;10595;51.218;3.452;2022-09-14T09:15:24;4.27;;;1.80;;
20870;SDS011;10595;51.218;3.452;2022-09-14T09:17:56;6.13;;;1.83;;
20870;SDS011;10595;51.218;3.452;2022-09-14T09:22:51;4.10;;;2.30;;
20870;SDS011;10595;51.218;3.452;2022-09-14T09:25:20;2.40;;;1.70;;
20870;SDS011;10595;51.218;3.452;2022-09-14T09:27:48;4.13;;;1.80;;
20870;SDS011;10595;51.218;3.452;2022-09-14T09:30:14;3.90;;;1.57;;
20870;SDS011;10595;51.218;3.452;2022-09-14T09:32:40;2.63;;;1.57;;
20870;SDS011;10595;51.218;3.452;2022-09-14T09:35:07;3.17;;;1.53;;
20870;SDS011;10595;51.218;3.452;2022-09-14T09:37:36;4.60;;;1.67;;
20870;SDS011;10595;51.218;3.452;2022-09-14T09:40:04;6.73;;;1.50;;
20870;SDS011;10595;51.218;3.452;2022-09-14T09:42:37;6.30;;;1.50;;
20870;SDS011;10595;51.218;3.452;2022-09-14T09:45:23;4.77;;;1.23;;
20870;SDS011;10595;51.218;3.452;2022-09-14T09:47:50;2.20;;;1.00;;
20870;SDS011;10595;51.218;3.452;2022-09-14T09:50:17;2.13;;;1.20;;
20870;SDS011;10595;51.218;3.452;2022-09-14T09:52:51;2.33;;;0.97;;
20870;SDS011;10595;51.218;3.452;2022-09-14T09:55:18;3.13;;;1.40;;
20870;SDS011;10595;51.218;3.452;2022-09-14T09:57:44;3.00;;;1.23;;
20870;SDS011;10595;51.218;3.452;2022-09-14T10:02:40;5.20;;;1.40;;
20870;SDS011;10595;51.218;3.452;2022-09-14T10:07:41;3.37;;;1.50;;
20870;SDS011;10595;51.218;3.452;2022-09-14T10:10:09;2.50;;;1.30;;
20870;SDS011;10595;51.218;3.452;2022-09-14T10:12:36;3.77;;;1.80;;
20870;SDS011;10595;51.218;3.452;2022-09-14T10:15:13;6.53;;;1.60;;
20870;SDS011;10595;51.218;3.452;2022-09-14T10:17:52;4.63;;;2.00;;
20870;SDS011;10595;51.218;3.452;2022-09-14T10:20:22;3.63;;;1.67;;
20870;SDS011;10595;51.218;3.452;2022-09-14T10:22:48;3.57;;;1.97;;
20870;SDS011;10595;51.218;3.452;2022-09-14T10:27:45;6.70;;;2.27;;
20870;SDS011;10595;51.218;3.452;2022-09-14T10:30:18;4.83;;;1.87;;
20870;SDS011;10595;51.218;3.452;2022-09-14T10:32:58;2.97;;;2.03;;
20870;SDS011;10595;51.218;3.452;2022-09-14T10:35:35;5.10;;;1.87;;
20870;SDS011;10595;51.218;3.452;2022-09-14T10:43:56;3.17;;;1.90;;
20870;SDS011;10595;51.218;3.452;2022-09-14T10:46:39;2.93;;;2.13;;
20870;SDS011;10595;51.218;3.452;2022-09-14T10:51:51;3.60;;;1.77;;
20870;SDS011;10595;51.218;3.452;2022-09-14T10:57:19;4.83;;;1.80;;
20870;SDS011;10595;51.218;3.452;2022-09-14T11:02:41;3.17;;;1.27;;
20870;SDS011;10595;51.218;3.452;2022-09-14T11:05:18;3.47;;;1.90;;
20870;SDS011;10595;51.218;3.452;2022-09-14T11:25:45;2.47;;;1.80;;
20870;SDS011;10595;51.218;3.452;2022-09-14T11:28:14;3.60;;;2.20;;
20870;SDS011;10595;51.218;3.452;2022-09-14T11:30:42;3.67;;;1.90;;
20870;SDS011;10595;51.218;3.452;2022-09-14T11:35:44;3.50;;;1.97;;
20870;SDS011;10595;51.218;3.452;2022-09-14T11:38:13;5.33;;;1.87;;
20870;SDS011;10595;51.218;3.452;2022-09-14T11:40:53;5.80;;;2.33;;
20870;SDS011;10595;51.218;3.452;2022-09-14T11:45:54;5.53;;;2.17;;
20870;SDS011;10595;51.218;3.452;2022-09-14T11:50:46;3.60;;;2.30;;
20870;SDS011;10595;51.218;3.452;2022-09-14T11:53:15;2.97;;;2.50;;
20870;SDS011;10595;51.218;3.452;2022-09-14T11:55:45;4.47;;;2.50;;
20870;SDS011;10595;51.218;3.452;2022-09-14T11:58:16;3.93;;;2.60;;
20870;SDS011;10595;51.218;3.452;2022-09-14T12:03:16;5.80;;;2.70;;
20870;SDS011;10595;51.218;3.452;2022-09-14T12:05:42;4.87;;;2.50;;
20870;SDS011;10595;51.218;3.452;2022-09-14T12:08:54;3.97;;;2.17;;
20870;SDS011;10595;51.218;3.452;2022-09-14T12:13:30;4.47;;;2.10;;
20870;SDS011;10595;51.218;3.452;2022-09-14T12:16:03;4.30;;;1.90;;
20870;SDS011;10595;51.218;3.452;2022-09-14T12:18:30;2.63;;;1.60;;
20870;SDS011;10595;51.218;3.452;2022-09-14T12:21:00;2.77;;;1.70;;
20870;SDS011;10595;51.218;3.452;2022-09-14T12:35:59;4.83;;;1.80;;
20870;SDS011;10595;51.218;3.452;2022-09-14T12:56:32;4.20;;;2.47;;
20870;SDS011;10595;51.218;3.452;2022-09-14T12:59:01;4.23;;;2.70;;
20870;SDS011;10595;51.218;3.452;2022-09-14T13:01:49;4.07;;;2.87;;
20870;SDS011;10595;51.218;3.452;2022-09-14T13:04:24;5.90;;;3.03;;
20870;SDS011;10595;51.218;3.452;2022-09-14T13:06:51;5.90;;;2.90;;
20870;SDS011;10595;51.218;3.452;2022-09-14T13:09:19;3.70;;;3.27;;
20870;SDS011;10595;51.218;3.452;2022-09-14T13:11:47;3.40;;;2.70;;
20870;SDS011;10595;51.218;3.452;2022-09-14T13:14:17;6.80;;;2.90;;
20870;SDS011;10595;51.218;3.452;2022-09-14T13:16:44;4.23;;;2.47;;
20870;SDS011;10595;51.218;3.452;2022-09-14T13:19:48;5.07;;;3.17;;
20870;SDS011;10595;51.218;3.452;2022-09-14T13:22:03;4.23;;;3.23;;
20870;SDS011;10595;51.218;3.452;2022-09-14T13:24:44;4.63;;;3.60;;
20870;SDS011;10595;51.218;3.452;2022-09-14T13:27:30;4.90;;;3.23;;
20870;SDS011;10595;51.218;3.452;2022-09-14T13:30:00;5.30;;;3.80;;
20870;SDS011;10595;51.218;3.452;2022-09-14T13:32:26;5.27;;;3.47;;
20870;SDS011;10595;51.218;3.452;2022-09-14T13:34:53;5.20;;;3.70;;
20870;SDS011;10595;51.218;3.452;2022-09-14T13:37:19;5.50;;;3.60;;
20870;SDS011;10595;51.218;3.452;2022-09-14T13:39:48;5.50;;;3.70;;
20870;SDS011;10595;51.218;3.452;2022-09-14T13:42:14;4.67;;;3.80;;
20870;SDS011;10595;51.218;3.452;2022-09-14T13:44:41;5.67;;;4.30;;
20870;SDS011;10595;51.218;3.452;2022-09-14T13:47:13;6.27;;;4.10;;
20870;SDS011;10595;51.218;3.452;2022-09-14T13:49:40;4.90;;;3.57;;
20870;SDS011;10595;51.218;3.452;2022-09-14T13:57:32;6.37;;;4.07;;
20870;SDS011;10595;51.218;3.452;2022-09-14T14:02:28;6.37;;;4.60;;
20870;SDS011;10595;51.218;3.452;2022-09-14T14:04:55;4.57;;;3.97;;
20870;SDS011;10595;51.218;3.452;2022-09-14T14:07:22;4.63;;;3.73;;
20870;SDS011;10595;51.218;3.452;2022-09-14T14:09:55;5.47;;;3.70;;
20870;SDS011;10595;51.218;3.452;2022-09-14T14:12:26;4.70;;;4.20;;
20870;SDS011;10595;51.218;3.452;2022-09-14T14:14:56;4.63;;;4.23;;
20870;SDS011;10595;51.218;3.452;2022-09-14T14:19:55;5.33;;;4.07;;
20870;SDS011;10595;51.218;3.452;2022-09-14T14:22:26;6.50;;;4.17;;
20870;SDS011;10595;51.218;3.452;2022-09-14T14:24:52;4.73;;;3.60;;
20870;SDS011;10595;51.218;3.452;2022-09-14T14:29:55;3.57;;;3.27;;
20870;SDS011;10595;51.218;3.452;2022-09-14T14:32:21;4.63;;;3.83;;
20870;SDS011;10595;51.218;3.452;2022-09-14T14:34:48;4.10;;;3.40;;
20870;SDS011;10595;51.218;3.452;2022-09-14T14:37:14;4.93;;;3.70;;
20870;SDS011;10595;51.218;3.452;2022-09-14T14:39:40;4.60;;;4.20;;
20870;SDS011;10595;51.218;3.452;2022-09-14T14:42:06;5.13;;;4.47;;
20870;SDS011;10595;51.218;3.452;2022-09-14T14:44:32;5.00;;;4.50;;
20870;SDS011;10595;51.218;3.452;2022-09-14T14:46:59;4.80;;;4.30;;
20870;SDS011;10595;51.218;3.452;2022-09-14T14:49:25;5.07;;;4.03;;
20870;SDS011;10595;51.218;3.452;2022-09-14T14:51:51;5.93;;;4.67;;
20870;SDS011;10595;51.218;3.452;2022-09-14T14:54:18;6.60;;;4.27;;
20870;SDS011;10595;51.218;3.452;2022-09-14T14:56:48;7.63;;;4.13;;
20870;SDS011;10595;51.218;3.452;2022-09-14T15:01:46;4.37;;;3.97;;
20870;SDS011;10595;51.218;3.452;2022-09-14T15:04:12;6.90;;;3.87;;
20870;SDS011;10595;51.218;3.452;2022-09-14T15:06:38;6.07;;;4.37;;
20870;SDS011;10595;51.218;3.452;2022-09-14T15:09:24;6.67;;;4.20;;
20870;SDS011;10595;51.218;3.452;2022-09-14T15:11:51;4.23;;;3.83;;
20870;SDS011;10595;51.218;3.452;2022-09-14T15:14:21;5.70;;;4.43;;
20870;SDS011;10595;51.218;3.452;2022-09-14T15:16:48;6.00;;;4.23;;
20870;SDS011;10595;51.218;3.452;2022-09-14T15:19:15;6.07;;;4.47;;
20870;SDS011;10595;51.218;3.452;2022-09-14T15:21:41;6.90;;;4.27;;
20870;SDS011;10595;51.218;3.452;2022-09-14T15:24:07;5.03;;;4.00;;
20870;SDS011;10595;51.218;3.452;2022-09-14T15:26:34;5.30;;;4.23;;
20870;SDS011;10595;51.218;3.452;2022-09-14T15:29:01;5.80;;;3.87;;
20870;SDS011;10595;51.218;3.452;2022-09-14T15:31:27;7.57;;;3.97;;
20870;SDS011;10595;51.218;3.452;2022-09-14T15:33:53;4.83;;;3.23;;
20870;SDS011;10595;51.218;3.452;2022-09-14T15:39:00;4.47;;;3.07;;
20870;SDS011;10595;51.218;3.452;2022-09-14T15:41:26;4.40;;;3.17;;
20870;SDS011;10595;51.218;3.452;2022-09-14T15:43:52;4.47;;;3.20;;
20870;SDS011;10595;51.218;3.452;2022-09-14T15:46:18;5.17;;;3.07;;
20870;SDS011;10595;51.218;3.452;2022-09-14T15:48:44;9.90;;;3.77;;
20870;SDS011;10595;51.218;3.452;2022-09-14T15:51:10;4.87;;;4.10;;
20870;SDS011;10595;51.218;3.452;2022-09-14T15:53:37;6.80;;;4.53;;
20870;SDS011;10595;51.218;3.452;2022-09-14T15:56:09;5.80;;;4.40;;
20870;SDS011;10595;51.218;3.452;2022-09-14T15:58:36;5.53;;;4.27;;
20870;SDS011;10595;51.218;3.452;2022-09-14T16:01:08;5.27;;;4.60;;
20870;SDS011;10595;51.218;3.452;2022-09-14T16:03:34;7.53;;;4.13;;
20870;SDS011;10595;51.218;3.452;2022-09-14T16:06:00;7.13;;;4.70;;
20870;SDS011;10595;51.218;3.452;2022-09-14T16:08:26;6.90;;;5.30;;
20870;SDS011;10595;51.218;3.452;2022-09-14T16:11:00;5.90;;;4.70;;
20870;SDS011;10595;51.218;3.452;2022-09-14T16:13:26;4.87;;;4.37;;
20870;SDS011;10595;51.218;3.452;2022-09-14T16:16:05;6.40;;;4.20;;
20870;SDS011;10595;51.218;3.452;2022-09-14T16:18:32;10.77;;;4.30;;
20870;SDS011;10595;51.218;3.452;2022-09-14T16:23:31;5.37;;;3.90;;
20870;SDS011;10595;51.218;3.452;2022-09-14T16:25:57;7.07;;;4.60;;
20870;SDS011;10595;51.218;3.452;2022-09-14T16:28:23;6.43;;;4.07;;
20870;SDS011;10595;51.218;3.452;2022-09-14T16:30:49;6.13;;;3.73;;
20870;SDS011;10595;51.218;3.452;2022-09-14T16:33:15;6.80;;;3.67;;
20870;SDS011;10595;51.218;3.452;2022-09-14T16:35:41;7.67;;;3.83;;
20870;SDS011;10595;51.218;3.452;2022-09-14T16:38:07;5.03;;;3.50;;
20870;SDS011;10595;51.218;3.452;2022-09-14T16:40:33;8.00;;;3.70;;
20870;SDS011;10595;51.218;3.452;2022-09-14T16:43:00;5.03;;;3.40;;
20870;SDS011;10595;51.218;3.452;2022-09-14T16:45:26;5.37;;;3.80;;
20870;SDS011;10595;51.218;3.452;2022-09-14T16:47:52;6.17;;;3.73;;
20870;SDS011;10595;51.218;3.452;2022-09-14T16:50:18;6.60;;;3.43;;
20870;SDS011;10595;51.218;3.452;2022-09-14T16:52:44;9.43;;;3.90;;
20870;SDS011;10595;51.218;3.452;2022-09-14T16:55:10;7.70;;;3.80;;
20870;SDS011;10595;51.218;3.452;2022-09-14T16:57:36;7.90;;;4.20;;
20870;SDS011;10595;51.218;3.452;2022-09-14T17:00:03;7.83;;;4.23;;
20870;SDS011;10595;51.218;3.452;2022-09-14T17:02:29;6.07;;;3.40;;
20870;SDS011;10595;51.218;3.452;2022-09-14T17:04:55;5.70;;;3.50;;
20870;SDS011;10595;51.218;3.452;2022-09-14T17:07:21;7.67;;;3.90;;
20870;SDS011;10595;51.218;3.452;2022-09-14T17:09:48;5.93;;;3.67;;
20870;SDS011;10595;51.218;3.452;2022-09-14T17:12:14;9.13;;;3.30;;
20870;SDS011;10595;51.218;3.452;2022-09-14T17:14:40;5.27;;;3.70;;